Time;durP1;ratioP1;P1;durP2;ratioP2;P2;SDS_P1;SDS_P2;PMS_P1;PMS_P2;Temp;Humidity;BMP_temperature;BMP_pressure;BME280_temperature;BME280_humidity;BME280_pressure;Samples;Min_cycle;Max_cycle;Signal;HPM_P1;HPM_P2
2023/01/14 00:01:13;;;;;;;147.35;64.43;;;103.20;2227.20;;;;;;5049334;28;20037;-59
2023/01/14 00:03:38;;;;;;;110.75;61.97;;;103.30;2227.20;;;;;;5049587;28;20108;-59
2023/01/14 00:06:04;;;;;;;207.25;113.85;;;128.00;2252.80;;;;;;5049584;28;20104;-59
2023/01/14 00:08:31;;;;;;;237.70;118.47;;;128.20;2252.80;;;;;;5049386;28;20166;-59
2023/01/14 00:11:04;;;;;;;308.75;145.45;;;128.20;2252.80;;;;;;5049568;28;20029;-59
2023/01/14 00:13:31;;;;;;;;;;;128.30;2252.80;;;;;;5049756;28;20036;-59
2023/01/14 00:15:57;;;;;;;113.53;54.72;;;128.30;2252.80;;;;;;5049658;28;19911;-58
2023/01/14 00:18:23;;;;;;;83.80;47.45;;;128.40;2252.80;;;;;;5049379;28;20017;-59
2023/01/14 00:21:03;;;;;;;84.95;48.13;;;128.40;2252.80;;;;;;5049102;28;20423;-59
2023/01/14 00:23:30;;;;;;;72.20;40.05;;;128.50;2252.80;;;;;;5049454;28;20526;-59
2023/01/14 00:26:16;;;;;;;173.65;90.13;;;128.50;2252.80;;;;;;5049270;28;20025;-59
2023/01/14 00:28:45;;;;;;;87.28;43.42;;;128.40;2252.80;;;;;;5049482;28;20040;-59
2023/01/14 00:31:14;;;;;;;42.97;23.17;;;128.60;2252.80;;;;;;5049485;28;20056;-59
2023/01/14 00:33:41;;;;;;;42.85;24.55;;;128.60;2252.80;;;;;;5049193;28;20087;-59
2023/01/14 00:36:10;;;;;;;167.00;82.32;;;128.50;2252.80;;;;;;5049236;28;20021;-58
2023/01/14 00:38:36;;;;;;;105.28;53.20;;;128.50;2252.80;;;;;;5049221;28;20036;-59
2023/01/14 00:41:17;;;;;;;88.38;46.95;;;128.40;2252.80;;;;;;5048911;28;20420;-58
2023/01/14 00:43:45;;;;;;;228.88;131.45;;;128.40;2252.80;;;;;;5049219;28;20431;-59
2023/01/14 00:46:19;;;;;;;312.10;186.75;;;128.30;2252.80;;;;;;5049110;28;20032;-59
2023/01/14 00:48:46;;;;;;;258.42;150.68;;;128.00;2252.80;;;;;;5050224;28;20501;-60
2023/01/14 00:51:12;;;;;;;231.05;134.45;;;128.20;2252.80;;;;;;5052764;28;20044;-59
2023/01/14 00:53:40;;;;;;;188.05;109.35;;;128.30;2252.80;;;;;;5052932;28;20463;-59
2023/01/14 00:56:06;;;;;;;271.75;144.50;;;128.30;2252.80;;;;;;5052862;28;20044;-58
2023/01/14 00:58:32;;;;;;;158.07;90.93;;;128.10;2252.80;;;;;;5052382;28;20033;-58
2023/01/14 01:00:59;;;;;;;109.88;64.05;;;128.20;2252.80;;;;;;5052628;28;20043;-58
2023/01/14 01:03:25;;;;;;;117.50;63.50;;;128.30;2252.80;;;;;;5052673;28;20033;-58
2023/01/14 01:05:51;;;;;;;104.90;57.60;;;128.30;2252.80;;;;;;5052227;28;20029;-59
2023/01/14 01:08:18;;;;;;;93.60;51.38;;;128.30;2252.80;;;;;;5052533;28;20040;-59
2023/01/14 01:10:46;;;;;;;183.25;92.95;;;128.30;2252.80;;;;;;5052495;28;20063;-59
2023/01/14 01:13:12;;;;;;;126.10;69.53;;;128.40;2252.80;;;;;;5052394;28;20033;-59
2023/01/14 01:15:39;;;;;;;190.60;95.57;;;128.40;2252.80;;;;;;5052618;28;20471;-59
2023/01/14 01:18:05;;;;;;;157.48;77.00;;;128.40;2252.80;;;;;;5049217;28;20029;-58
2023/01/14 01:20:31;;;;;;;112.65;55.88;;;128.50;2252.80;;;;;;5048891;28;20107;-58
2023/01/14 01:22:57;;;;;;;65.75;33.60;;;128.50;2252.80;;;;;;5051730;28;20064;-58
2023/01/14 01:25:24;;;;;;;43.63;24.77;;;128.50;2252.80;;;;;;5051513;28;20127;-59
2023/01/14 01:27:49;;;;;;;34.53;19.50;;;128.50;2252.80;;;;;;5051638;28;20036;-59
2023/01/14 01:30:15;;;;;;;54.20;39.45;;;128.50;2252.80;;;;;;5051678;28;20402;-59
2023/01/14 01:32:41;;;;;;;34.53;20.30;;;128.30;2252.80;;;;;;5051645;28;20051;-58
2023/01/14 01:35:08;;;;;;;31.33;18.10;;;128.30;2252.80;;;;;;5051568;28;20463;-58
2023/01/14 01:37:34;;;;;;;25.23;18.00;;;128.30;2252.80;;;;;;5051730;28;20025;-58
2023/01/14 01:40:00;;;;;;;26.35;16.58;;;128.30;2252.80;;;;;;5051460;28;20371;-59
2023/01/14 01:42:33;;;;;;;32.25;20.83;;;128.40;2252.80;;;;;;5051188;28;20057;-57
2023/01/14 01:45:22;;;;;;;32.72;18.60;;;128.30;2252.80;;;;;;5043045;28;20536;-58
2023/01/14 01:47:53;;;;;;;28.33;17.27;;;128.30;2252.80;;;;;;5050966;28;20021;-59
2023/01/14 01:50:19;;;;;;;33.92;19.58;;;128.30;2252.80;;;;;;5051208;28;20079;-57
2023/01/14 01:52:46;;;;;;;99.20;54.25;;;128.20;2252.80;;;;;;5051629;28;20029;-57
2023/01/14 01:55:12;;;;;;;66.78;38.15;;;128.00;2252.80;;;;;;5048627;28;20025;-57
2023/01/14 01:57:39;;;;;;;36.92;24.75;;;128.10;2252.80;;;;;;5051543;28;20032;-57
2023/01/14 02:00:07;;;;;;;23.52;14.23;;;128.10;2252.80;;;;;;5051286;28;20116;-57
2023/01/14 02:02:33;;;;;;;24.23;14.98;;;128.20;2252.80;;;;;;5048235;28;20162;-59
2023/01/14 02:04:59;;;;;;;42.97;26.77;;;128.10;2252.80;;;;;;5051061;28;20110;-58
2023/01/14 02:07:26;;;;;;;32.70;19.52;;;128.10;2252.80;;;;;;5051183;28;20090;-58
2023/01/14 02:10:03;;;;;;;31.15;16.90;;;128.10;2252.80;;;;;;5048388;28;20028;-59
2023/01/14 02:12:36;;;;;;;28.42;16.38;;;128.30;2252.80;;;;;;5051092;28;20164;-59
2023/01/14 02:15:29;;;;;;;28.88;17.08;;;128.30;2252.80;;;;;;5051221;28;20099;-58
2023/01/14 02:17:57;;;;;;;41.25;25.73;;;128.40;2252.80;;;;;;5051583;28;20033;-58
2023/01/14 02:20:34;;;;;;;33.55;22.15;;;128.40;2252.80;;;;;;5051035;28;20025;-59
2023/01/14 02:23:39;;;;;;;31.42;21.65;;;128.40;2252.80;;;;;;5050934;28;20037;-59
2023/01/14 02:26:30;;;;;;;36.38;22.30;;;128.40;2252.80;;;;;;5051266;28;20021;-58
2023/01/14 02:29:21;;;;;;;98.70;52.25;;;128.40;2252.80;;;;;;5051012;28;20466;-58
2023/01/14 02:32:04;;;;;;;32.42;20.98;;;128.50;2252.80;;;;;;5051007;28;20013;-58
2023/01/14 02:34:51;;;;;;;33.08;16.35;;;128.60;2252.80;;;;;;5050700;28;20029;-60
2023/01/14 02:37:57;;;;;;;27.42;18.35;;;128.50;2252.80;;;;;;5050546;28;20033;-58
2023/01/14 02:40:42;;;;;;;40.47;24.70;;;128.50;2252.80;;;;;;5048059;28;20514;-58
2023/01/14 02:46:40;;;;;;;55.55;30.88;;;128.60;2252.80;;;;;;5050644;28;20036;-59
2023/01/14 02:49:11;;;;;;;31.63;19.42;;;128.60;2252.80;;;;;;5050866;28;20033;-58
2023/01/14 02:51:38;;;;;;;35.42;20.75;;;128.60;2252.80;;;;;;5050741;28;20021;-57
2023/01/14 02:54:04;;;;;;;32.72;19.85;;;128.60;2252.80;;;;;;5050311;28;20032;-58
2023/01/14 02:56:30;;;;;;;38.85;22.02;;;128.60;2252.80;;;;;;5050429;28;20021;-59
2023/01/14 02:59:16;;;;;;;39.45;22.58;;;128.60;2252.80;;;;;;5050539;28;20024;-58
2023/01/14 03:01:57;;;;;;;39.47;24.25;;;128.50;2252.80;;;;;;5050350;28;20032;-58
2023/01/14 03:04:37;;;;;;;42.75;23.15;;;128.40;2252.80;;;;;;5050097;28;20043;-59
2023/01/14 03:07:40;;;;;;;33.88;21.92;;;128.40;2252.80;;;;;;5050273;28;20025;-58
2023/01/14 03:10:21;;;;;;;38.17;22.60;;;128.40;2252.80;;;;;;5025909;28;20360;-59
2023/01/14 03:13:08;;;;;;;43.47;26.58;;;128.40;2252.80;;;;;;5049952;28;20537;-59
2023/01/14 03:15:50;;;;;;;51.17;31.00;;;128.40;2252.80;;;;;;5050122;28;20112;-59
2023/01/14 03:18:21;;;;;;;46.28;27.88;;;128.10;2252.80;;;;;;5050235;28;20032;-59
2023/01/14 03:21:01;;;;;;;58.70;35.40;;;128.40;2252.80;;;;;;5050128;28;20056;-58
2023/01/14 03:23:29;;;;;;;41.70;25.48;;;128.30;2252.80;;;;;;5050235;28;20036;-59
2023/01/14 03:25:57;;;;;;;46.90;29.05;;;128.40;2252.80;;;;;;5050335;28;20021;-59
2023/01/14 03:28:33;;;;;;;48.95;28.95;;;128.30;2252.80;;;;;;5049900;28;20028;-59
2023/01/14 03:31:05;;;;;;;52.92;28.95;;;128.40;2252.80;;;;;;5049970;28;20036;-59
2023/01/14 03:33:35;;;;;;;48.10;28.98;;;128.40;2252.80;;;;;;5049987;28;20039;-59
2023/01/14 03:36:03;;;;;;;47.38;29.25;;;128.30;2252.80;;;;;;5049593;28;20495;-59
2023/01/14 03:38:38;;;;;;;47.55;30.25;;;128.30;2252.80;;;;;;5049939;28;20037;-58
2023/01/14 03:41:06;;;;;;;45.63;27.55;;;128.30;2252.80;;;;;;5049440;28;20045;-59
2023/01/14 03:43:37;;;;;;;52.72;30.33;;;128.30;2252.80;;;;;;5049713;28;20110;-59
2023/01/14 03:46:03;;;;;;;45.53;28.13;;;128.30;2252.80;;;;;;5049592;28;20025;-58
2023/01/14 03:48:29;;;;;;;54.08;33.67;;;128.30;2252.80;;;;;;5049768;28;20116;-58
2023/01/14 03:51:31;;;;;;;44.83;29.25;;;128.40;2252.80;;;;;;5049684;28;20525;-59
2023/01/14 03:54:05;;;;;;;45.15;28.20;;;128.30;2252.80;;;;;;5049783;28;20036;-59
2023/01/14 03:56:47;;;;;;;42.47;28.52;;;128.30;2252.80;;;;;;5049377;28;20021;-59
2023/01/14 03:59:22;;;;;;;75.38;44.67;;;128.30;2252.80;;;;;;5049601;28;20114;-60
2023/01/14 04:01:53;;;;;;;48.88;30.08;;;128.40;2252.80;;;;;;5049689;28;20111;-58
2023/01/14 04:04:20;;;;;;;51.50;32.47;;;128.50;2252.80;;;;;;5049722;28;20018;-59
2023/01/14 04:06:46;;;;;;;48.67;32.05;;;128.60;2252.80;;;;;;5049704;28;20482;-59
2023/01/14 04:09:12;;;;;;;56.10;36.25;;;128.60;2252.80;;;;;;5049837;28;20363;-59
2023/01/14 04:11:38;;;;;;;64.60;37.90;;;128.60;2252.80;;;;;;5049731;28;20041;-58
2023/01/14 04:16:49;;;;;;;59.63;37.40;;;128.80;2252.80;;;;;;5049601;28;20031;-59
2023/01/14 04:19:14;;;;;;;60.53;34.50;;;128.80;2252.80;;;;;;5049533;28;20029;-59
2023/01/14 04:21:40;;;;;;;54.45;34.83;;;128.90;2252.80;;;;;;5049480;28;20086;-60
2023/01/14 04:24:06;;;;;;;57.83;33.85;;;128.90;2252.80;;;;;;5050999;28;20031;-59
2023/01/14 04:26:32;;;;;;;49.20;33.15;;;128.90;2252.80;;;;;;5053234;28;20040;-59
2023/01/14 04:28:58;;;;;;;55.78;35.28;;;128.90;2252.80;;;;;;5053488;28;20051;-58
2023/01/14 04:31:24;;;;;;;59.47;38.47;;;153.60;2252.80;;;;;;5053292;28;20462;-59
2023/01/14 04:33:50;;;;;;;46.20;32.28;;;153.60;2252.80;;;;;;5053002;28;20025;-59
2023/01/14 04:36:15;;;;;;;55.10;34.55;;;153.60;2252.80;;;;;;5053161;28;20478;-59
2023/01/14 04:38:41;;;;;;;111.40;66.85;;;153.70;2252.80;;;;;;5053051;28;20096;-59
2023/01/14 04:42:25;;;;;;;61.88;39.50;;;153.70;2252.80;;;;;;5052627;28;20052;-58
2023/01/14 04:43:59;;;;;;;64.82;39.95;;;153.60;2252.80;;;;;;5052919;28;20028;-58
2023/01/14 04:46:26;;;;;;;69.32;42.13;;;128.90;2252.80;;;;;;5052971;28;20017;-58
2023/01/14 04:48:51;;;;;;;64.95;39.85;;;128.80;2252.80;;;;;;5053084;28;20028;-59
2023/01/14 04:51:17;;;;;;;71.93;45.38;;;128.90;2252.80;;;;;;5053060;28;20029;-59
2023/01/14 04:53:43;;;;;;;66.18;41.75;;;128.80;2252.80;;;;;;5052690;28;20052;-58
2023/01/14 04:56:08;;;;;;;63.38;38.75;;;128.80;2252.80;;;;;;5034485;28;20120;-59
2023/01/14 04:58:34;;;;;;;66.82;41.00;;;128.80;2252.80;;;;;;5052740;28;20029;-59
2023/01/14 05:01:00;;;;;;;63.83;38.95;;;128.90;2252.80;;;;;;5052388;28;20107;-58
2023/01/14 05:03:26;;;;;;;68.00;43.13;;;128.90;2252.80;;;;;;5052639;28;20037;-58
2023/01/14 05:05:52;;;;;;;68.30;42.00;;;153.60;2252.80;;;;;;5052355;28;20037;-59
2023/01/14 05:08:19;;;;;;;68.80;43.88;;;153.60;2252.80;;;;;;5052662;28;20056;-59
2023/01/14 05:10:49;;;;;;;64.15;40.55;;;153.60;2252.80;;;;;;5052461;28;20131;-59
2023/01/14 05:13:15;;;;;;;60.58;38.67;;;153.60;2252.80;;;;;;5052363;28;20028;-59
2023/01/14 05:15:42;;;;;;;67.15;43.90;;;153.60;2252.80;;;;;;5052365;28;20019;-58
2023/01/14 05:18:10;;;;;;;62.05;41.53;;;153.60;2252.80;;;;;;5052522;28;20025;-58
2023/01/14 05:20:37;;;;;;;66.38;43.50;;;153.70;2252.80;;;;;;5052272;28;20024;-57
2023/01/14 05:23:06;;;;;;;64.90;40.25;;;153.70;2252.80;;;;;;5051990;28;20044;-58
2023/01/14 05:25:34;;;;;;;69.82;42.38;;;153.70;2252.80;;;;;;5052037;28;20021;-59
2023/01/14 05:28:02;;;;;;;61.35;40.85;;;153.70;1945.60;;;;;;5052003;28;20053;-59
2023/01/14 05:30:28;;;;;;;56.17;36.97;;;153.80;2022.40;;;;;;5052192;28;20068;-59
2023/01/14 05:32:54;;;;;;;62.50;37.53;;;153.90;2252.80;;;;;;5052258;28;20068;-58
2023/01/14 05:35:20;;;;;;;57.33;35.70;;;153.90;1894.40;;;;;;5051496;28;20033;-59
2023/01/14 05:37:46;;;;;;;64.93;40.72;;;154.00;2252.80;;;;;;5052035;28;20037;-60
2023/01/14 05:40:11;;;;;;;64.10;39.40;;;154.00;2252.80;;;;;;5051811;28;20108;-58
2023/01/14 05:48:06;;;;;;;57.70;37.53;;;154.10;2150.40;;;;;;5051856;28;20032;-58
2023/01/14 05:50:32;;;;;;;57.95;38.92;;;154.20;2201.60;;;;;;5051741;28;20116;-58
2023/01/14 05:52:58;;;;;;;60.95;37.05;;;154.20;1996.80;;;;;;5051751;28;20489;-59
2023/01/14 05:55:24;;;;;;;59.97;37.00;;;154.10;2252.80;;;;;;5051371;28;20009;-58
2023/01/14 05:57:49;;;;;;;60.40;37.65;;;154.20;2252.80;;;;;;5051448;28;20029;-59
2023/01/14 06:08:30;;;;;;;70.20;47.80;;;154.10;2252.80;;;;;;5051577;28;20124;-58
2023/01/14 06:10:55;;;;;;;66.45;43.63;;;154.10;2252.80;;;;;;5051553;28;20029;-58
2023/01/14 06:13:24;;;;;;;67.47;43.03;;;154.00;2124.80;;;;;;5050962;28;20031;-58
2023/01/14 06:15:55;;;;;;;68.55;42.80;;;154.00;2176.00;;;;;;5051206;28;20025;-58
2023/01/14 06:18:23;;;;;;;61.85;40.67;;;154.00;2124.80;;;;;;5051050;28;20025;-58
2023/01/14 06:20:51;;;;;;;69.55;41.03;;;154.00;2073.60;;;;;;5051204;28;20025;-58
2023/01/14 06:23:18;;;;;;;59.38;38.70;;;154.00;2252.80;;;;;;5051189;28;20033;-59
2023/01/14 06:25:49;;;;;;;62.15;37.30;;;154.00;2252.80;;;;;;5051022;28;20021;-58
2023/01/14 06:28:16;;;;;;;75.22;42.15;;;154.00;2252.80;;;;;;5051146;28;20035;-59
2023/01/14 06:30:42;;;;;;;61.13;40.58;;;154.00;2252.80;;;;;;5051005;28;20025;-58
2023/01/14 06:33:09;;;;;;;89.68;69.70;;;153.90;2252.80;;;;;;5051072;28;20028;-59
2023/01/14 06:35:41;;;;;;;63.72;40.72;;;153.90;2252.80;;;;;;5050691;28;20115;-58
2023/01/14 06:38:06;;;;;;;61.97;42.70;;;153.90;2252.80;;;;;;5050826;28;20032;-61
2023/01/14 06:40:32;;;;;;;65.25;38.45;;;153.90;2252.80;;;;;;5050404;28;20462;-58
2023/01/14 06:42:58;;;;;;;73.07;49.15;;;153.90;2252.80;;;;;;5051047;28;20479;-58
2023/01/14 06:45:24;;;;;;;58.90;37.92;;;154.00;2252.80;;;;;;5050438;28;20070;-58
2023/01/14 06:47:51;;;;;;;60.38;42.50;;;154.00;2252.80;;;;;;5049806;28;20497;-59
2023/01/14 06:50:19;;;;;;;61.95;44.60;;;154.10;2252.80;;;;;;5050625;28;20068;-59
2023/01/14 06:52:45;;;;;;;65.22;46.47;;;154.10;2252.80;;;;;;5050701;28;20100;-60
2023/01/14 06:55:11;;;;;;;78.70;51.30;;;154.20;2252.80;;;;;;5050645;28;20040;-59
2023/01/14 06:57:37;;;;;;;86.18;55.75;;;154.10;2252.80;;;;;;5051059;28;20364;-60
2023/01/14 07:00:04;;;;;;;89.60;62.05;;;154.30;2252.80;;;;;;5050857;28;20031;-59
2023/01/14 07:02:29;;;;;;;97.05;70.93;;;154.30;2252.80;;;;;;5050665;28;20502;-59
2023/01/14 07:04:55;;;;;;;65.10;46.78;;;154.20;2252.80;;;;;;5048528;28;20021;-58
2023/01/14 07:07:21;;;;;;;94.20;66.75;;;154.30;2252.80;;;;;;5049740;28;20128;-58
2023/01/14 07:09:46;;;;;;;64.63;41.72;;;154.40;2252.80;;;;;;5050876;28;20063;-59
2023/01/14 07:12:12;;;;;;;65.50;44.55;;;154.50;2252.80;;;;;;5050560;28;20127;-59
2023/01/14 07:14:38;;;;;;;69.97;46.78;;;154.40;2252.80;;;;;;5050863;28;20100;-58
2023/01/14 07:17:04;;;;;;;58.67;40.03;;;154.30;2252.80;;;;;;5050699;28;20037;-59
2023/01/14 07:19:29;;;;;;;58.15;32.30;;;154.50;2252.80;;;;;;5050461;28;20056;-60
2023/01/14 07:21:55;;;;;;;59.20;39.45;;;154.50;2048.00;;;;;;5050475;28;20500;-59
2023/01/14 07:24:21;;;;;;;63.50;39.35;;;154.50;1996.80;;;;;;5050456;28;20021;-60
2023/01/14 07:26:46;;;;;;;126.82;82.57;;;154.50;1920.00;;;;;;5050558;28;20383;-60
2023/01/14 07:29:12;;;;;;;58.05;40.00;;;154.50;2252.80;;;;;;5050708;28;20151;-59
2023/01/14 07:31:38;;;;;;;215.43;156.27;;;154.50;2252.80;;;;;;5041066;28;20404;-61
2023/01/14 07:34:04;;;;;;;150.43;108.13;;;154.50;2252.80;;;;;;5035498;28;20033;-61
2023/01/14 07:36:29;;;;;;;53.75;38.47;;;154.50;2022.40;;;;;;5035460;28;20072;-60
2023/01/14 07:38:55;;;;;;;59.75;45.25;;;154.50;2252.80;;;;;;5030479;28;20037;-59
2023/01/14 07:41:22;;;;;;;58.92;42.40;;;154.50;2252.80;;;;;;5035712;28;20061;-60
2023/01/14 07:43:48;;;;;;;55.70;34.78;;;154.50;2252.80;;;;;;5050422;28;20021;-60
2023/01/14 07:46:15;;;;;;;56.88;40.40;;;179.40;2252.80;;;;;;5050463;28;20025;-61
2023/01/14 07:48:42;;;;;;;54.33;33.67;;;154.50;2252.80;;;;;;5050193;28;20025;-61
2023/01/14 07:51:13;;;;;;;56.85;39.85;;;179.30;2176.00;;;;;;5050314;28;20033;-60
2023/01/14 07:53:39;;;;;;;60.05;42.42;;;179.30;2252.80;;;;;;5050383;28;20025;-60
2023/01/14 07:56:06;;;;;;;50.78;32.65;;;179.30;2252.80;;;;;;5050338;28;20119;-60
2023/01/14 07:58:33;;;;;;;53.47;34.33;;;179.40;2252.80;;;;;;5052649;28;20096;-60
2023/01/14 08:01:04;;;;;;;50.80;38.17;;;179.40;2252.80;;;;;;5054445;28;20025;-60
2023/01/14 08:03:30;;;;;;;59.38;40.35;;;179.40;2252.80;;;;;;5054244;28;20390;-60
2023/01/14 08:05:55;;;;;;;63.75;43.60;;;179.40;2252.80;;;;;;5054273;28;20021;-60
2023/01/14 08:08:21;;;;;;;60.28;39.45;;;179.40;2252.80;;;;;;5053945;28;20056;-59
2023/01/14 08:10:47;;;;;;;55.80;37.53;;;179.40;2252.80;;;;;;5054229;28;20032;-60
2023/01/14 08:13:13;;;;;;;59.60;40.35;;;179.40;2252.80;;;;;;5053829;28;20417;-60
2023/01/14 08:15:39;;;;;;;62.85;42.22;;;179.50;2252.80;;;;;;5054015;28;20033;-60
2023/01/14 08:18:05;;;;;;;94.13;51.75;;;179.50;2252.80;;;;;;5054278;28;20042;-60
2023/01/14 08:20:31;;;;;;;53.28;36.85;;;179.50;2252.80;;;;;;5053829;28;20029;-60
2023/01/14 08:23:00;;;;;;;65.55;43.83;;;179.50;2252.80;;;;;;5054037;28;20115;-60
2023/01/14 08:25:27;;;;;;;106.65;61.88;;;179.60;2252.80;;;;;;5053693;28;20025;-59
2023/01/14 08:27:53;;;;;;;61.17;39.33;;;179.60;2252.80;;;;;;5053808;28;20039;-60
2023/01/14 08:30:20;;;;;;;65.97;41.90;;;179.50;2252.80;;;;;;5053792;28;20076;-61
2023/01/14 08:32:47;;;;;;;76.93;45.15;;;179.50;2252.80;;;;;;5053923;28;20518;-57
2023/01/14 08:35:13;;;;;;;60.75;39.72;;;179.60;2252.80;;;;;;5053486;28;20048;-58
2023/01/14 08:37:40;;;;;;;119.10;63.60;;;179.70;2252.80;;;;;;5053894;28;20567;-57
2023/01/14 08:40:06;;;;;;;66.30;41.88;;;179.80;2252.80;;;;;;5053880;28;20033;-57
2023/01/14 08:42:32;;;;;;;341.63;173.60;;;179.80;2252.80;;;;;;5053053;28;20056;-58
2023/01/14 08:44:58;;;;;;;71.18;42.58;;;179.80;2252.80;;;;;;5053609;28;20025;-61
2023/01/14 08:47:23;;;;;;;59.75;39.58;;;179.80;2252.80;;;;;;5053406;28;20025;-57
2023/01/14 08:49:49;;;;;;;448.55;226.65;;;179.70;2252.80;;;;;;5053472;28;20021;-57
2023/01/14 08:52:15;;;;;;;73.43;43.80;;;179.70;2252.80;;;;;;5053328;28;20025;-59
2023/01/14 08:54:40;;;;;;;325.52;158.60;;;179.70;2252.80;;;;;;5053455;28;20507;-58
2023/01/14 08:57:06;;;;;;;247.15;124.22;;;179.70;2252.80;;;;;;5053356;28;20075;-57
2023/01/14 08:59:32;;;;;;;143.23;74.80;;;179.70;2252.80;;;;;;5053297;28;20025;-58
2023/01/14 09:01:57;;;;;;;61.22;40.97;;;179.70;2252.80;;;;;;5053281;28;20045;-60
2023/01/14 09:04:24;;;;;;;66.35;42.28;;;179.80;2252.80;;;;;;5053083;28;20422;-58
2023/01/14 09:18:01;;;;;;;81.22;47.30;;;179.90;2252.80;;;;;;5053084;28;20506;-58
2023/01/14 09:20:32;;;;;;;55.03;38.90;;;180.00;2252.80;;;;;;5052973;28;20025;-58
2023/01/14 09:22:59;;;;;;;59.13;40.30;;;180.10;2252.80;;;;;;5052924;28;20066;-58
2023/01/14 09:25:25;;;;;;;53.30;36.70;;;180.10;2252.80;;;;;;5052900;28;20471;-57
2023/01/14 09:27:50;;;;;;;67.35;56.80;;;204.80;2252.80;;;;;;5052561;28;20060;-59
2023/01/14 09:30:16;;;;;;;79.43;50.53;;;204.80;2252.80;;;;;;5052799;28;20025;-61
2023/01/14 09:32:42;;;;;;;79.93;52.83;;;204.90;2252.80;;;;;;5052446;28;20025;-58
2023/01/14 09:35:08;;;;;;;58.85;39.05;;;204.80;2252.80;;;;;;5052743;28;20028;-58
2023/01/14 09:37:34;;;;;;;60.92;41.28;;;205.00;2252.80;;;;;;5052201;28;20047;-61
2023/01/14 09:40:00;;;;;;;49.90;39.17;;;205.00;2252.80;;;;;;5052430;28;20033;-58
2023/01/14 09:42:36;;;;;;;63.17;41.20;;;205.00;2252.80;;;;;;5052083;28;20050;-58
2023/01/14 09:45:02;;;;;;;66.60;45.55;;;204.90;2252.80;;;;;;5052293;28;20029;-58
2023/01/14 09:47:28;;;;;;;93.35;59.78;;;205.00;2252.80;;;;;;5051155;28;20024;-61
2023/01/14 09:49:54;;;;;;;106.32;64.65;;;205.10;2252.80;;;;;;5052084;28;20455;-60
2023/01/14 09:53:04;;;;;;;58.85;39.65;;;205.10;2252.80;;;;;;5052029;28;20051;-59
2023/01/14 09:55:51;;;;;;;66.70;46.13;;;205.20;2252.80;;;;;;5051984;28;20027;-58
2023/01/14 09:58:39;;;;;;;47.95;37.40;;;205.10;2252.80;;;;;;5052117;28;20473;-58
2023/01/14 10:01:05;;;;;;;77.47;46.83;;;205.20;2252.80;;;;;;5051698;28;20083;-58
2023/01/14 10:03:54;;;;;;;44.95;33.42;;;205.20;2252.80;;;;;;5051724;28;20033;-58
2023/01/14 10:06:20;;;;;;;96.00;54.50;;;205.30;2252.80;;;;;;5051834;28;20096;-58
2023/01/14 10:08:58;;;;;;;223.20;117.95;;;205.20;2252.80;;;;;;5052157;28;20428;-61
2023/01/14 10:11:27;;;;;;;83.18;48.90;;;205.40;2252.80;;;;;;5051584;28;20070;-61
2023/01/14 10:14:13;;;;;;;123.00;69.80;;;205.30;2252.80;;;;;;5051818;28;20025;-61
2023/01/14 10:16:45;;;;;;;94.18;53.42;;;205.40;2252.80;;;;;;5051812;28;20379;-58
2023/01/14 10:19:15;;;;;;;68.78;40.35;;;205.50;2252.80;;;;;;5051571;28;20025;-58
2023/01/14 10:21:51;;;;;;;44.17;33.17;;;205.70;2252.80;;;;;;5050392;28;20037;-59
2023/01/14 10:24:19;;;;;;;84.82;50.33;;;230.40;2252.80;;;;;;5051812;28;20017;-58
2023/01/14 10:26:48;;;;;;;56.22;38.50;;;230.40;2252.80;;;;;;5051496;28;20029;-59
2023/01/14 10:29:20;;;;;;;83.82;46.80;;;230.60;2252.80;;;;;;5051349;28;20036;-57
2023/01/14 10:31:58;;;;;;;74.07;47.70;;;230.70;2252.80;;;;;;5051551;28;20032;-58
2023/01/14 10:34:33;;;;;;;177.45;100.45;;;230.70;2252.80;;;;;;5051268;28;20487;-58
2023/01/14 10:36:59;;;;;;;50.58;35.80;;;230.80;2252.80;;;;;;5051425;28;20021;-62
2023/01/14 10:39:25;;;;;;;103.07;63.92;;;230.80;2252.80;;;;;;5051464;28;20054;-58
2023/01/14 10:41:51;;;;;;;97.55;65.93;;;230.90;2252.80;;;;;;5055618;28;20124;-58
2023/01/14 10:44:33;;;;;;;126.85;81.65;;;231.10;2252.80;;;;;;5062889;28;20107;-59
2023/01/14 10:47:12;;;;;;;51.67;35.75;;;231.20;2252.80;;;;;;5064069;28;20067;-57
2023/01/14 10:49:40;;;;;;;53.60;36.10;;;231.30;2252.80;;;;;;5051190;28;20471;-58
2023/01/14 10:52:28;;;;;;;43.80;30.70;;;256.00;2252.80;;;;;;5051107;28;20063;-58
2023/01/14 10:55:13;;;;;;;68.82;44.67;;;256.10;2252.80;;;;;;5050883;28;20021;-58
2023/01/14 10:57:58;;;;;;;49.78;35.28;;;231.30;2252.80;;;;;;5051093;28;20109;-61
2023/01/14 11:00:50;;;;;;;35.05;26.55;;;256.10;2252.80;;;;;;5050679;28;20119;-61
2023/01/14 11:03:26;;;;;;;32.72;23.83;;;256.30;2252.80;;;;;;5050841;28;20036;-60
2023/01/14 11:05:58;;;;;;;42.63;28.63;;;256.50;2252.80;;;;;;5050624;28;20112;-58
2023/01/14 11:08:29;;;;;;;54.63;39.70;;;256.90;2252.80;;;;;;5050583;28;20021;-58
2023/01/14 11:10:58;;;;;;;29.90;24.02;;;281.60;2278.40;;;;;;5050776;28;20108;-59
2023/01/14 11:13:31;;;;;;;30.60;22.50;;;256.90;2252.80;;;;;;5050749;28;20032;-61
2023/01/14 11:15:58;;;;;;;30.08;24.67;;;281.60;2278.40;;;;;;5050902;28;20115;-58
2023/01/14 11:18:26;;;;;;;36.53;26.42;;;256.90;2252.80;;;;;;5050294;28;20074;-58
2023/01/14 11:20:51;;;;;;;34.08;25.23;;;256.70;2252.80;;;;;;5059455;28;20021;-60
2023/01/14 11:23:27;;;;;;;32.13;25.67;;;256.50;2252.80;;;;;;5064864;28;20368;-58
2023/01/14 11:25:53;;;;;;;30.95;26.52;;;256.40;2252.80;;;;;;5056602;28;20024;-61
2023/01/14 11:28:19;;;;;;;36.38;25.65;;;256.40;2252.80;;;;;;5068454;28;20429;-56
2023/01/14 11:30:54;;;;;;;33.97;26.83;;;256.00;2252.80;;;;;;5068444;28;20547;-59
2023/01/14 11:33:23;;;;;;;30.58;23.77;;;231.20;2252.80;;;;;;5067632;28;20028;-60
2023/01/14 11:36:00;;;;;;;35.25;26.75;;;231.10;2252.80;;;;;;5066008;28;20462;-61
2023/01/14 11:38:26;;;;;;;29.35;24.27;;;231.10;2252.80;;;;;;5058530;28;20067;-57
2023/01/14 11:44:15;;;;;;;45.15;39.40;;;231.20;2252.80;;;;;;5049637;28;20049;-58
2023/01/14 11:46:44;;;;;;;34.13;24.83;;;231.10;2252.80;;;;;;5039445;28;20039;-60
2023/01/14 11:49:12;;;;;;;32.38;23.90;;;231.00;2252.80;;;;;;5050043;28;20029;-58
2023/01/14 11:51:40;;;;;;;33.92;28.33;;;231.10;2252.80;;;;;;5048491;28;20024;-59
2023/01/14 11:54:17;;;;;;;33.20;25.17;;;231.10;2252.80;;;;;;5049891;28;20063;-58
2023/01/14 11:56:45;;;;;;;31.17;25.25;;;231.10;2252.80;;;;;;5050075;28;20370;-58
2023/01/14 11:59:26;;;;;;;32.05;23.38;;;230.90;2252.80;;;;;;5050333;28;20425;-57
2023/01/14 12:02:03;;;;;;;195.45;119.72;;;230.90;2252.80;;;;;;5049812;28;20039;-62
2023/01/14 12:04:45;;;;;;;31.95;25.10;;;230.80;2252.80;;;;;;5049716;28;20021;-60
2023/01/14 12:07:26;;;;;;;47.70;38.83;;;230.70;2252.80;;;;;;5049921;28;20075;-58
2023/01/14 12:09:54;;;;;;;31.05;23.08;;;230.60;2252.80;;;;;;5050219;28;20108;-58
2023/01/14 12:18:34;;;;;;;29.80;20.88;;;231.10;2252.80;;;;;;5050040;28;20094;-59
2023/01/14 12:21:01;;;;;;;29.73;21.63;;;230.90;2252.80;;;;;;5046734;28;20467;-59
2023/01/14 12:23:33;;;;;;;28.17;20.40;;;230.90;2252.80;;;;;;5049568;28;20049;-58
2023/01/14 12:26:05;;;;;;;28.70;20.08;;;230.90;2252.80;;;;;;5050168;28;20115;-59
2023/01/14 12:28:43;;;;;;;40.42;29.30;;;230.90;2252.80;;;;;;5049673;28;20043;-58
2023/01/14 12:31:22;;;;;;;42.92;29.13;;;231.10;2252.80;;;;;;5049290;28;20391;-58
2023/01/14 12:33:59;;;;;;;34.20;24.80;;;231.10;2252.80;;;;;;5049458;28;20171;-60
2023/01/14 12:36:50;;;;;;;30.45;20.20;;;231.00;2252.80;;;;;;5049660;28;20103;-58
2023/01/14 12:48:08;;;;;;;29.00;18.67;;;230.80;2252.80;;;;;;5053908;28;20059;-60
2023/01/14 12:50:40;;;;;;;42.70;31.80;;;230.90;2252.80;;;;;;5053369;28;20029;-58
2023/01/14 12:53:06;;;;;;;28.35;19.33;;;230.80;2252.80;;;;;;5053447;28;20060;-59
2023/01/14 12:55:40;;;;;;;23.15;18.27;;;230.70;2252.80;;;;;;5053168;28;20052;-58
2023/01/14 12:58:16;;;;;;;32.10;25.25;;;230.70;2252.80;;;;;;5053361;28;20467;-62
2023/01/14 13:00:54;;;;;;;30.67;19.95;;;230.60;2252.80;;;;;;5053303;28;20025;-58
2023/01/14 13:03:33;;;;;;;40.00;27.88;;;230.70;2252.80;;;;;;5052984;28;20047;-58